1918 NOT_NAMED (1918021S16153)


IBTrACS version v04r00. Visit IBTrACS website for data access.
Please direct all questions to the IBTrACS Q and A forum

Storm track - Intensity - Wind Radii - Intensity Data - Source Data - All data

Summary Information

Storm ID 1918021S16153
Start Jan 20 23Z
Landfall Jan 23 06Z
End Feb 1 23Z
ATCF IDs
Track status Best track data.

Storm track plot

Map of storm track

Intensity plots

No Intensity information for this storm


Radial wind information

No radial wind information for this storm


Position and Intensity Table

BASIN ISO_TIME_________ NATURE LAT LON
degrees north degrees east
SP 1918-01-20 23:00:00 NR -15.80 153.10
SP 1918-01-21 00:00:00 NR -15.92 152.95
SP 03:00:00 NR -16.26 152.49
SP 06:00:00 NR -16.59 152.04
SP 09:00:00 NR -16.91 151.59
SP 11:00:00 NR -17.10 151.30
SP 12:00:00 NR -17.19 151.16
SP 15:00:00 NR -17.45 150.74
SP 18:00:00 NR -17.68 150.36
SP 21:00:00 NR -17.88 150.01
SP 23:00:00 NR -18.00 149.80
SP 1918-01-22 00:00:00 NR -18.06 149.70
SP 03:00:00 NR -18.22 149.44
SP 06:00:00 NR -18.37 149.22
SP 09:00:00 NR -18.51 149.02
SP 11:00:00 NR -18.60 148.90
SP 12:00:00 NR -18.64 148.84
SP 15:00:00 NR -18.75 148.69
SP 18:00:00 NR -18.87 148.54
SP 21:00:00 NR -19.04 148.36
SP 23:00:00 NR -19.20 148.20
SP 1918-01-23 00:00:00 NR -19.30 148.11
SP 03:00:00 NR -19.66 147.78
SP 06:00:00 NR -20.08 147.40
SP 09:00:00 NR -20.51 146.99
SP 11:00:00 NR -20.80 146.70
SP 12:00:00 NR -20.94 146.55
SP 15:00:00 NR -21.37 146.09
SP 18:00:00 NR -21.78 145.62
SP 21:00:00 NR -22.12 145.17
SP 23:00:00 NR -22.30 144.90
SP 1918-01-24 00:00:00 NR -22.37 144.78
SP 03:00:00 NR -22.52 144.46
SP 06:00:00 NR -22.59 144.17
SP 09:00:00 NR -22.61 143.89
SP 11:00:00 NR -22.60 143.70
SP 12:00:00 NR -22.60 143.59
SP 15:00:00 NR -22.58 143.27
SP 18:00:00 NR -22.52 142.95
SP 21:00:00 NR -22.45 142.62
SP 23:00:00 NR -22.40 142.40
SP 1918-01-25 00:00:00 NR -22.38 142.29
SP 03:00:00 NR -22.31 141.96
SP 06:00:00 NR -22.23 141.63
SP 09:00:00 NR -22.15 141.31
SP 11:00:00 NR -22.10 141.10
SP 12:00:00 NR -22.07 140.99
SP 15:00:00 NR -21.99 140.67
SP 18:00:00 NR -21.91 140.36
SP 21:00:00 NR -21.84 140.07
SP 23:00:00 NR -21.80 139.90
SP 1918-01-26 00:00:00 NR -21.78 139.82
SP 03:00:00 NR -21.75 139.60
SP 06:00:00 NR -21.73 139.41
SP 09:00:00 NR -21.71 139.22
SP 11:00:00 NR -21.70 139.10
SP 12:00:00 NR -21.69 139.03
SP 15:00:00 NR -21.65 138.83
SP 18:00:00 NR -21.62 138.63
SP 21:00:00 NR -21.60 138.43
SP 23:00:00 NR -21.60 138.30
SP 1918-01-27 00:00:00 NR -21.61 138.24
SP 03:00:00 NR -21.64 138.05
SP 06:00:00 NR -21.69 137.88
SP 09:00:00 NR -21.75 137.71
SP 11:00:00 NR -21.80 137.60
SP 12:00:00 NR -21.82 137.54
SP 15:00:00 NR -21.88 137.35
SP 18:00:00 NR -21.95 137.19
SP 21:00:00 NR -22.04 137.06
SP 23:00:00 NR -22.10 137.00
SP 1918-01-28 00:00:00 NR -22.14 136.98
SP 03:00:00 NR -22.26 136.97
SP 06:00:00 NR -22.39 137.00
SP 09:00:00 NR -22.52 137.06
SP 11:00:00 NR -22.60 137.10
SP 12:00:00 NR -22.64 137.11
SP 15:00:00 NR -22.75 137.13
SP 18:00:00 NR -22.85 137.16
SP 21:00:00 NR -22.94 137.23
SP 23:00:00 NR -23.00 137.30
SP 1918-01-29 00:00:00 NR -23.03 137.35
SP 03:00:00 NR -23.10 137.51
SP 06:00:00 NR -23.17 137.72
SP 09:00:00 NR -23.25 137.95
SP 11:00:00 NR -23.30 138.10
SP 12:00:00 NR -23.33 138.17
SP 15:00:00 NR -23.44 138.40
SP 18:00:00 NR -23.54 138.63
SP 21:00:00 NR -23.64 138.85
SP 23:00:00 NR -23.70 139.00
SP 1918-01-30 00:00:00 NR -23.72 139.07
SP 03:00:00 NR -23.78 139.27
SP 06:00:00 NR -23.83 139.47
SP 09:00:00 NR -23.87 139.67
SP 11:00:00 NR -23.90 139.80
SP 12:00:00 NR -23.89 139.83
SP 15:00:00 NR -23.84 139.91
SP 18:00:00 NR -23.83 140.04
SP 21:00:00 NR -23.93 140.31
SP 23:00:00 NR -24.10 140.60
SP 1918-01-31 00:00:00 NR -24.22 140.82
SP 03:00:00 NR -24.71 141.63
SP 06:00:00 NR -25.35 142.60
SP 09:00:00 NR -26.08 143.63
SP 11:00:00 NR -26.60 144.30
SP 12:00:00 NR -26.86 144.59
SP 15:00:00 NR -27.71 145.45
SP 18:00:00 NR -28.57 146.26
SP 21:00:00 NR -29.40 147.02
SP 23:00:00 NR -29.90 147.50
SP 1918-02-01 00:00:00 NR -30.12 147.72
SP 03:00:00 NR -30.72 148.32
SP 06:00:00 NR -31.23 148.88
SP 09:00:00 NR -31.65 149.47
SP 11:00:00 NR -31.90 149.90
SP 12:00:00 NR -32.01 150.14
SP 15:00:00 NR -32.31 150.91
SP 18:00:00 NR -32.55 151.77
SP 21:00:00 NR -32.77 152.68
SP 23:00:00 NR -32.90 153.30

Source Information

Agency Information
USA
TOKYO
CMA
HKO
NEWDELHI
REUNION
BOM
NADI
WELLINGTON
DS824
TD9636 cons_worldwide_trop_cyclone_18710101-19891231-006:Line=980
TD9635
NEUMANN
MLC

All available IBTrACS Data

SEASON BASIN SUBBASIN ISO_TIME_________ NATURE LAT LON DIST2LAND LANDFALL IFLAG USA SSHS TD9636 LAT TD9636 LON TD9636 STAGE STORM SPEED STORM DIR
Year degrees north degrees east km km 1 degrees north degrees east kts degrees
1918 SP EA 1918-01-20 23:00:00 NR -15.80 153.10 637 633 __________O___ -1 -15.80 153.10 7 11 232
1918 SP EA 1918-01-21 00:00:00 NR -15.92 152.95 639 602 __________P___ -1 -15.92 152.95 7 11 232
1918 SP EA 03:00:00 NR -16.26 152.49 593 540 __________P___ -1 -16.26 152.49 7 11 232
1918 SP EA 06:00:00 NR -16.59 152.04 534 481 __________P___ -1 -16.59 152.04 7 11 233
1918 SP EA 09:00:00 NR -16.91 151.59 481 444 __________P___ -1 -16.91 151.59 7 10 234
1918 SP EA 11:00:00 NR -17.10 151.30 444 429 __________O___ -1 -17.10 151.30 7 10 235
1918 SP EA 12:00:00 NR -17.19 151.16 429 386 __________P___ -1 -17.19 151.16 7 10 237
1918 SP EA 15:00:00 NR -17.45 150.74 381 335 __________P___ -1 -17.45 150.74 7 9 238
1918 SP EA 18:00:00 NR -17.68 150.36 335 295 __________P___ -1 -17.68 150.36 7 8 238
1918 SP EA 21:00:00 NR -17.88 150.01 295 273 __________P___ -1 -17.88 150.01 7 7 239
1918 SP EA 23:00:00 NR -18.00 149.80 273 258 __________O___ -1 -18.00 149.80 7 7 238
1918 SP EA 1918-01-22 00:00:00 NR -18.06 149.70 258 237 __________P___ -1 -18.06 149.70 7 6 237
1918 SP EA 03:00:00 NR -18.22 149.44 232 202 __________P___ -1 -18.22 149.44 7 6 236
1918 SP EA 06:00:00 NR -18.37 149.22 202 183 __________P___ -1 -18.37 149.22 7 5 234
1918 SP EA 09:00:00 NR -18.51 149.02 183 168 __________P___ -1 -18.51 149.02 7 5 233
1918 SP EA 11:00:00 NR -18.60 148.90 168 168 __________O___ -1 -18.60 148.90 7 4 232
1918 SP EA 12:00:00 NR -18.64 148.84 165 151 __________P___ -1 -18.64 148.84 7 4 233
1918 SP EA 15:00:00 NR -18.75 148.69 151 124 __________P___ -1 -18.75 148.69 7 4 231
1918 SP EA 18:00:00 NR -18.87 148.54 124 109 __________P___ -1 -18.87 148.54 7 4 227
1918 SP EA 21:00:00 NR -19.04 148.36 109 79 __________P___ -1 -19.04 148.36 7 6 224
1918 SP EA 23:00:00 NR -19.20 148.20 79 64 __________O___ -1 -19.20 148.20 7 7 223
1918 SP EA 1918-01-23 00:00:00 NR -19.30 148.11 64 22 __________P___ -1 -19.30 148.11 7 9 221
1918 SP EA 03:00:00 NR -19.66 147.78 11 0 __________P___ -1 -19.66 147.78 7 10 221
1918 SP EA 06:00:00 NR -20.08 147.40 0 0 __________P___ -1 -20.08 147.40 7 11 221
1918 SP EA 09:00:00 NR -20.51 146.99 0 0 __________P___ -1 -20.51 146.99 7 12 222
1918 SP EA 11:00:00 NR -20.80 146.70 0 0 __________O___ -1 -20.80 146.70 7 12 223
1918 SP EA 12:00:00 NR -20.94 146.55 0 0 __________P___ -1 -20.94 146.55 7 12 225
1918 SP EA 15:00:00 NR -21.37 146.09 0 0 __________P___ -1 -21.37 146.09 7 12 226
1918 SP EA 18:00:00 NR -21.78 145.62 0 0 __________P___ -1 -21.78 145.62 7 11 229
1918 SP EA 21:00:00 NR -22.12 145.17 0 0 __________P___ -1 -22.12 145.17 7 10 232
1918 SP EA 23:00:00 NR -22.30 144.90 0 0 __________O___ -1 -22.30 144.90 7 9 236
1918 SP EA 1918-01-24 00:00:00 NR -22.37 144.78 0 0 __________P___ -1 -22.37 144.78 7 7 242
1918 SP EA 03:00:00 NR -22.52 144.46 0 0 __________P___ -1 -22.52 144.46 7 6 249
1918 SP EA 06:00:00 NR -22.59 144.17 0 0 __________P___ -1 -22.59 144.17 7 5 260
1918 SP EA 09:00:00 NR -22.61 143.89 0 0 __________P___ -1 -22.61 143.89 7 5 269
1918 SP EA 11:00:00 NR -22.60 143.70 0 0 __________O___ -1 -22.60 143.70 7 5 272
1918 SP EA 12:00:00 NR -22.60 143.59 0 0 __________P___ -1 -22.60 143.59 7 6 273
1918 SP EA 15:00:00 NR -22.58 143.27 0 0 __________P___ -1 -22.58 143.27 7 6 277
1918 SP EA 18:00:00 NR -22.52 142.95 0 0 __________P___ -1 -22.52 142.95 7 6 282
1918 SP EA 21:00:00 NR -22.45 142.62 0 0 __________P___ -1 -22.45 142.62 7 6 284
1918 SP EA 23:00:00 NR -22.40 142.40 0 0 __________O___ -1 -22.40 142.40 7 6 284
1918 SP EA 1918-01-25 00:00:00 NR -22.38 142.29 0 0 __________P___ -1 -22.38 142.29 7 6 283
1918 SP EA 03:00:00 NR -22.31 141.96 0 0 __________P___ -1 -22.31 141.96 7 6 284
1918 SP EA 06:00:00 NR -22.23 141.63 0 0 __________P___ -1 -22.23 141.63 7 6 284
1918 SP EA 09:00:00 NR -22.15 141.31 0 0 __________P___ -1 -22.15 141.31 7 6 285
1918 SP EA 11:00:00 NR -22.10 141.10 0 0 __________O___ -1 -22.10 141.10 7 6 285
1918 SP EA 12:00:00 NR -22.07 140.99 0 0 __________P___ -1 -22.07 140.99 7 6 286
1918 SP EA 15:00:00 NR -21.99 140.67 0 0 __________P___ -1 -21.99 140.67 7 6 286
1918 SP EA 18:00:00 NR -21.91 140.36 0 0 __________P___ -1 -21.91 140.36 7 6 285
1918 SP EA 21:00:00 NR -21.84 140.07 0 0 __________P___ -1 -21.84 140.07 7 5 284
1918 SP EA 23:00:00 NR -21.80 139.90 0 0 __________O___ -1 -21.80 139.90 7 5 283
1918 SP EA 1918-01-26 00:00:00 NR -21.78 139.82 0 0 __________P___ -1 -21.78 139.82 7 4 280
1918 SP EA 03:00:00 NR -21.75 139.60 0 0 __________P___ -1 -21.75 139.60 7 4 278
1918 SP EA 06:00:00 NR -21.73 139.41 0 0 __________P___ -1 -21.73 139.41 7 4 276
1918 SP EA 09:00:00 NR -21.71 139.22 0 0 __________P___ -1 -21.71 139.22 7 3 276
1918 SP EA 11:00:00 NR -21.70 139.10 0 0 __________O___ -1 -21.70 139.10 7 4 278
1918 SP EA 12:00:00 NR -21.69 139.03 0 0 __________P___ -1 -21.69 139.03 7 4 281
1918 SP EA 15:00:00 NR -21.65 138.83 0 0 __________P___ -1 -21.65 138.83 7 4 281
1918 SP EA 18:00:00 NR -21.62 138.63 0 0 __________P___ -1 -21.62 138.63 7 4 278
1918 SP EA 21:00:00 NR -21.60 138.43 0 0 __________P___ -1 -21.60 138.43 7 4 273
1918 SP EA 23:00:00 NR -21.60 138.30 0 0 __________O___ -1 -21.60 138.30 7 4 268
1918 SP EA 1918-01-27 00:00:00 NR -21.61 138.24 0 0 __________P___ -1 -21.61 138.24 7 3 261
1918 SP EA 03:00:00 NR -21.64 138.05 0 0 __________P___ -1 -21.64 138.05 7 3 256
1918 SP EA 06:00:00 NR -21.69 137.88 0 0 __________P___ -1 -21.69 137.88 7 3 250
1918 SP EA 09:00:00 NR -21.75 137.71 0 0 __________P___ -1 -21.75 137.71 7 3 247
1918 SP EA 11:00:00 NR -21.80 137.60 0 0 __________O___ -1 -21.80 137.60 7 3 247
1918 SP EA 12:00:00 NR -21.82 137.54 0 0 __________P___ -1 -21.82 137.54 7 4 250
1918 SP EA 15:00:00 NR -21.88 137.35 0 0 __________P___ -1 -21.88 137.35 7 4 248
1918 SP EA 18:00:00 NR -21.95 137.19 0 0 __________P___ -1 -21.95 137.19 7 3 240
1918 SP EA 21:00:00 NR -22.04 137.06 0 0 __________P___ -1 -22.04 137.06 7 3 230
1918 SP EA 23:00:00 NR -22.10 137.00 0 0 __________O___ -1 -22.10 137.00 7 2 212
1918 SP EA 1918-01-28 00:00:00 NR -22.14 136.98 0 0 __________P___ -1 -22.14 136.98 7 2 189
1918 SP EA 03:00:00 NR -22.26 136.97 0 0 __________P___ -1 -22.26 136.97 7 3 179
1918 SP EA 06:00:00 NR -22.39 137.00 0 0 __________P___ -1 -22.39 137.00 7 3 164
1918 SP EA 09:00:00 NR -22.52 137.06 0 0 __________P___ -1 -22.52 137.06 7 3 158
1918 SP EA 11:00:00 NR -22.60 137.10 0 0 __________O___ -1 -22.60 137.10 7 3 165
1918 SP EA 12:00:00 NR -22.64 137.11 0 0 __________P___ -1 -22.64 137.11 7 2 172
1918 SP EA 15:00:00 NR -22.75 137.13 0 0 __________P___ -1 -22.75 137.13 7 2 166
1918 SP EA 18:00:00 NR -22.85 137.16 0 0 __________P___ -1 -22.85 137.16 7 2 154
1918 SP EA 21:00:00 NR -22.94 137.23 0 0 __________P___ -1 -22.94 137.23 7 2 140
1918 SP EA 23:00:00 NR -23.00 137.30 0 0 __________O___ -1 -23.00 137.30 7 3 129
1918 SP EA 1918-01-29 00:00:00 NR -23.03 137.35 0 0 __________P___ -1 -23.03 137.35 7 3 117
1918 SP EA 03:00:00 NR -23.10 137.51 0 0 __________P___ -1 -23.10 137.51 7 4 113
1918 SP EA 06:00:00 NR -23.17 137.72 0 0 __________P___ -1 -23.17 137.72 7 4 110
1918 SP EA 09:00:00 NR -23.25 137.95 0 0 __________P___ -1 -23.25 137.95 7 4 110
1918 SP EA 11:00:00 NR -23.30 138.10 0 0 __________O___ -1 -23.30 138.10 7 5 112
1918 SP EA 12:00:00 NR -23.33 138.17 0 0 __________P___ -1 -23.33 138.17 7 5 116
1918 SP EA 15:00:00 NR -23.44 138.40 0 0 __________P___ -1 -23.44 138.40 7 5 117
1918 SP EA 18:00:00 NR -23.54 138.63 0 0 __________P___ -1 -23.54 138.63 7 5 116
1918 SP EA 21:00:00 NR -23.64 138.85 0 0 __________P___ -1 -23.64 138.85 7 5 115
1918 SP EA 23:00:00 NR -23.70 139.00 0 0 __________O___ -1 -23.70 139.00 7 4 112
1918 SP EA 1918-01-30 00:00:00 NR -23.72 139.07 0 0 __________P___ -1 -23.72 139.07 7 4 108
1918 SP EA 03:00:00 NR -23.78 139.27 0 0 __________P___ -1 -23.78 139.27 7 4 106
1918 SP EA 06:00:00 NR -23.83 139.47 0 0 __________P___ -1 -23.83 139.47 7 4 104
1918 SP EA 09:00:00 NR -23.87 139.67 0 0 __________P___ -1 -23.87 139.67 7 4 103
1918 SP EA 11:00:00 NR -23.90 139.80 0 0 __________O___ -1 -23.90 139.80 7 3 96
1918 SP EA 12:00:00 NR -23.89 139.83 0 0 __________P___ -1 -23.89 139.83 7 2 59
1918 SP EA 15:00:00 NR -23.84 139.91 0 0 __________P___ -1 -23.84 139.91 7 2 73
1918 SP EA 18:00:00 NR -23.83 140.04 0 0 __________P___ -1 -23.83 140.04 7 4 105
1918 SP EA 21:00:00 NR -23.93 140.31 0 0 __________P___ -1 -23.93 140.31 7 7 118
1918 SP EA 23:00:00 NR -24.10 140.60 0 0 __________O___ -1 -24.10 140.60 7 11 122
1918 SP EA 1918-01-31 00:00:00 NR -24.22 140.82 0 0 __________P___ -1 -24.22 140.82 7 17 123
1918 SP EA 03:00:00 NR -24.71 141.63 0 0 __________P___ -1 -24.71 141.63 7 20 125
1918 SP EA 06:00:00 NR -25.35 142.60 0 0 __________P___ -1 -25.35 142.60 7 23 127
1918 SP EA 09:00:00 NR -26.08 143.63 0 0 __________P___ -1 -26.08 143.63 7 24 129
1918 SP EA 11:00:00 NR -26.60 144.30 0 0 __________O___ -1 -26.60 144.30 7 23 132
1918 SP EA 12:00:00 NR -26.86 144.59 0 0 __________P___ -1 -26.86 144.59 7 23 137
1918 SP EA 15:00:00 NR -27.71 145.45 0 0 __________P___ -1 -27.71 145.45 7 23 139
1918 SP EA 18:00:00 NR -28.57 146.26 0 0 __________P___ -1 -28.57 146.26 7 22 141
1918 SP EA 21:00:00 NR -29.40 147.02 0 0 __________P___ -1 -29.40 147.02 7 21 141
1918 SP EA 23:00:00 NR -29.90 147.50 0 0 __________O___ -1 -29.90 147.50 7 19 140
1918 SP EA 1918-02-01 00:00:00 NR -30.12 147.72 0 0 __________P___ -1 -30.12 147.72 7 16 139
1918 SP EA 03:00:00 NR -30.72 148.32 0 0 __________P___ -1 -30.72 148.32 7 15 138
1918 SP EA 06:00:00 NR -31.23 148.88 0 0 __________P___ -1 -31.23 148.88 7 14 134
1918 SP EA 09:00:00 NR -31.65 149.47 0 0 __________P___ -1 -31.65 149.47 7 13 128
1918 SP EA 11:00:00 NR -31.90 149.90 0 0 __________O___ -1 -31.90 149.90 7 13 122
1918 SP EA 12:00:00 NR -32.01 150.14 0 0 __________P___ -1 -32.01 150.14 7 14 115
1918 SP EA 15:00:00 NR -32.31 150.91 0 0 __________P___ -1 -32.31 150.91 7 15 111
1918 SP EA 18:00:00 NR -32.55 151.77 0 0 __________P___ -1 -32.55 151.77 7 16 107
1918 SP EA 21:00:00 NR -32.77 152.68 47 47 __________P___ -1 -32.77 152.68 7 16 105
1918 SP EA 23:00:00 NR -32.90 153.30 93 __________O___ -1 -32.90 153.30 7 16 104